sensor_id;sensor_type;location;lat;lon;timestamp;pressure;altitude;pressure_sealevel;temperature;humidity
49999;BME280;68071;45.062;7.356;2023-04-01T00:00:20;94157.63;;;11.31;32.10
49999;BME280;68071;45.062;7.356;2023-04-01T00:03:26;94121.19;;;11.20;32.26
49999;BME280;68071;45.062;7.356;2023-04-01T00:06:33;94113.25;;;11.35;32.06
49999;BME280;68071;45.062;7.356;2023-04-01T00:09:37;94132.47;;;11.26;32.43
49999;BME280;68071;45.062;7.356;2023-04-01T00:12:41;94127.09;;;11.35;32.16
49999;BME280;68071;45.062;7.356;2023-04-01T00:15:45;94111.13;;;11.26;32.73
49999;BME280;68071;45.062;7.356;2023-04-01T00:18:50;94113.13;;;11.26;32.57
49999;BME280;68071;45.062;7.356;2023-04-01T00:21:54;94124.06;;;11.16;32.85
49999;BME280;68071;45.062;7.356;2023-04-01T00:24:58;94113.47;;;11.28;32.46
49999;BME280;68071;45.062;7.356;2023-04-01T00:28:02;94130.22;;;11.08;32.44
49999;BME280;68071;45.062;7.356;2023-04-01T00:31:07;94112.88;;;11.20;32.58
49999;BME280;68071;45.062;7.356;2023-04-01T00:34:11;94095.38;;;11.10;32.65
49999;BME280;68071;45.062;7.356;2023-04-01T00:37:15;94093.81;;;10.96;34.32
49999;BME280;68071;45.062;7.356;2023-04-01T00:40:27;94115.53;;;11.53;30.02
49999;BME280;68071;45.062;7.356;2023-04-01T00:43:31;94104.53;;;11.49;30.50
49999;BME280;68071;45.062;7.356;2023-04-01T00:46:35;94119.09;;;10.95;32.01
49999;BME280;68071;45.062;7.356;2023-04-01T00:49:43;94098.53;;;11.25;31.25
49999;BME280;68071;45.062;7.356;2023-04-01T00:52:47;94100.81;;;11.69;29.31
49999;BME280;68071;45.062;7.356;2023-04-01T00:59:29;94063.84;;;11.76;28.18
49999;BME280;68071;45.062;7.356;2023-04-01T01:02:35;94076.56;;;11.60;29.41
49999;BME280;68071;45.062;7.356;2023-04-01T01:12:25;94064.53;;;9.87;36.85
49999;BME280;68071;45.062;7.356;2023-04-01T01:16:09;94075.72;;;9.63;37.71
49999;BME280;68071;45.062;7.356;2023-04-01T01:19:42;94056.22;;;9.53;37.84
49999;BME280;68071;45.062;7.356;2023-04-01T01:29:44;94088.16;;;8.94;41.61
49999;BME280;68071;45.062;7.356;2023-04-01T01:32:56;94088.22;;;8.90;41.65
49999;BME280;68071;45.062;7.356;2023-04-01T01:36:06;94082.09;;;9.03;41.04
49999;BME280;68071;45.062;7.356;2023-04-01T01:39:13;94069.78;;;9.97;34.96
49999;BME280;68071;45.062;7.356;2023-04-01T01:42:19;94082.31;;;10.52;33.48
49999;BME280;68071;45.062;7.356;2023-04-01T01:45:26;94077.03;;;11.16;32.63
49999;BME280;68071;45.062;7.356;2023-04-01T01:48:32;94077.41;;;10.10;35.79
49999;BME280;68071;45.062;7.356;2023-04-01T01:51:36;94066.19;;;9.47;39.51
49999;BME280;68071;45.062;7.356;2023-04-01T01:54:53;94077.34;;;9.23;40.84
49999;BME280;68071;45.062;7.356;2023-04-01T01:58:02;94087.22;;;8.60;42.93
49999;BME280;68071;45.062;7.356;2023-04-01T02:01:14;94092.41;;;8.31;43.38
49999;BME280;68071;45.062;7.356;2023-04-01T02:04:22;94101.75;;;9.05;41.29
49999;BME280;68071;45.062;7.356;2023-04-01T02:07:31;94078.41;;;9.10;41.82
49999;BME280;68071;45.062;7.356;2023-04-01T02:10:41;94112.25;;;8.70;43.50
49999;BME280;68071;45.062;7.356;2023-04-01T02:13:55;94062.06;;;9.19;41.60
49999;BME280;68071;45.062;7.356;2023-04-01T02:17:10;94095.69;;;10.53;38.48
49999;BME280;68071;45.062;7.356;2023-04-01T02:20:19;94114.84;;;10.27;39.56
49999;BME280;68071;45.062;7.356;2023-04-01T02:23:25;94116.91;;;10.23;40.77
49999;BME280;68071;45.062;7.356;2023-04-01T02:26:30;94109.94;;;10.19;40.77
49999;BME280;68071;45.062;7.356;2023-04-01T02:29:35;94107.34;;;10.28;40.09
49999;BME280;68071;45.062;7.356;2023-04-01T02:32:39;94149.13;;;10.47;38.77
49999;BME280;68071;45.062;7.356;2023-04-01T02:35:44;94111.03;;;10.38;38.83
49999;BME280;68071;45.062;7.356;2023-04-01T02:38:49;94102.16;;;10.47;38.55
49999;BME280;68071;45.062;7.356;2023-04-01T02:41:53;94128.59;;;10.48;38.63
49999;BME280;68071;45.062;7.356;2023-04-01T02:44:57;94119.84;;;10.33;39.43
49999;BME280;68071;45.062;7.356;2023-04-01T02:48:01;94134.44;;;10.17;40.45
49999;BME280;68071;45.062;7.356;2023-04-01T02:51:05;94107.84;;;10.06;41.27
49999;BME280;68071;45.062;7.356;2023-04-01T02:54:09;94126.38;;;9.89;42.33
49999;BME280;68071;45.062;7.356;2023-04-01T02:57:14;94151.63;;;9.51;44.92
49999;BME280;68071;45.062;7.356;2023-04-01T03:00:18;94161.31;;;9.19;47.21
49999;BME280;68071;45.062;7.356;2023-04-01T03:03:22;94168.38;;;9.20;46.67
49999;BME280;68071;45.062;7.356;2023-04-01T03:06:26;94145.41;;;9.06;47.91
49999;BME280;68071;45.062;7.356;2023-04-01T03:09:30;94145.72;;;9.32;46.36
49999;BME280;68071;45.062;7.356;2023-04-01T03:12:36;94165.25;;;8.98;48.76
49999;BME280;68071;45.062;7.356;2023-04-01T03:15:40;94177.81;;;8.78;49.31
49999;BME280;68071;45.062;7.356;2023-04-01T03:18:45;94197.59;;;8.93;48.96
49999;BME280;68071;45.062;7.356;2023-04-01T03:21:49;94200.72;;;8.96;48.37
49999;BME280;68071;45.062;7.356;2023-04-01T03:24:53;94250.09;;;8.62;51.58
49999;BME280;68071;45.062;7.356;2023-04-01T03:27:57;94195.81;;;8.59;51.61
49999;BME280;68071;45.062;7.356;2023-04-01T03:31:03;94186.28;;;8.40;52.73
49999;BME280;68071;45.062;7.356;2023-04-01T03:34:14;94222.59;;;8.59;50.48
49999;BME280;68071;45.062;7.356;2023-04-01T03:37:19;94221.34;;;8.63;49.27
49999;BME280;68071;45.062;7.356;2023-04-01T03:40:23;94244.97;;;8.88;47.10
49999;BME280;68071;45.062;7.356;2023-04-01T03:43:30;94254.94;;;9.26;44.59
49999;BME280;68071;45.062;7.356;2023-04-01T03:46:35;94245.38;;;9.31;42.86
49999;BME280;68071;45.062;7.356;2023-04-01T03:49:38;94242.81;;;9.20;44.72
49999;BME280;68071;45.062;7.356;2023-04-01T03:52:42;94238.94;;;8.93;45.91
49999;BME280;68071;45.062;7.356;2023-04-01T03:55:46;94247.94;;;8.98;44.94
49999;BME280;68071;45.062;7.356;2023-04-01T03:58:51;94244.06;;;9.39;41.92
49999;BME280;68071;45.062;7.356;2023-04-01T04:01:55;94258.41;;;9.30;41.92
49999;BME280;68071;45.062;7.356;2023-04-01T04:04:59;94250.97;;;9.47;40.69
49999;BME280;68071;45.062;7.356;2023-04-01T04:08:05;94249.94;;;9.61;39.97
49999;BME280;68071;45.062;7.356;2023-04-01T04:11:11;94252.13;;;9.70;38.79
49999;BME280;68071;45.062;7.356;2023-04-01T04:14:18;94253.19;;;9.76;39.05
49999;BME280;68071;45.062;7.356;2023-04-01T04:17:24;94237.41;;;9.57;40.00
49999;BME280;68071;45.062;7.356;2023-04-01T04:20:28;94234.16;;;9.42;40.77
49999;BME280;68071;45.062;7.356;2023-04-01T04:23:32;94226.03;;;9.54;39.79
49999;BME280;68071;45.062;7.356;2023-04-01T04:26:38;94228.50;;;9.49;39.51
49999;BME280;68071;45.062;7.356;2023-04-01T04:29:41;94232.09;;;9.66;37.89
49999;BME280;68071;45.062;7.356;2023-04-01T04:32:45;94211.59;;;9.67;38.37
49999;BME280;68071;45.062;7.356;2023-04-01T04:35:50;94214.13;;;9.78;38.19
49999;BME280;68071;45.062;7.356;2023-04-01T04:38:54;94225.66;;;9.93;36.59
49999;BME280;68071;45.062;7.356;2023-04-01T04:41:59;94225.34;;;9.71;37.51
49999;BME280;68071;45.062;7.356;2023-04-01T04:45:03;94234.81;;;9.69;38.00
49999;BME280;68071;45.062;7.356;2023-04-01T04:48:09;94242.03;;;9.43;39.59
49999;BME280;68071;45.062;7.356;2023-04-01T04:51:15;94243.69;;;9.17;41.16
49999;BME280;68071;45.062;7.356;2023-04-01T04:54:19;94249.38;;;9.06;41.63
49999;BME280;68071;45.062;7.356;2023-04-01T04:57:35;94257.59;;;9.10;42.36
49999;BME280;68071;45.062;7.356;2023-04-01T05:00:40;94251.81;;;9.00;43.15
49999;BME280;68071;45.062;7.356;2023-04-01T05:03:48;94261.59;;;9.05;42.46
49999;BME280;68071;45.062;7.356;2023-04-01T05:06:52;94253.06;;;9.19;40.84
49999;BME280;68071;45.062;7.356;2023-04-01T05:09:57;94237.19;;;9.27;40.87
49999;BME280;68071;45.062;7.356;2023-04-01T05:13:01;94258.69;;;9.36;39.75
49999;BME280;68071;45.062;7.356;2023-04-01T05:16:14;94244.69;;;9.27;41.03
49999;BME280;68071;45.062;7.356;2023-04-01T05:19:19;94232.50;;;9.24;41.48
49999;BME280;68071;45.062;7.356;2023-04-01T05:22:24;94221.47;;;9.24;42.06
49999;BME280;68071;45.062;7.356;2023-04-01T05:25:29;94218.00;;;9.20;41.70
49999;BME280;68071;45.062;7.356;2023-04-01T05:28:33;94212.81;;;9.26;42.05
49999;BME280;68071;45.062;7.356;2023-04-01T05:31:37;94230.91;;;9.27;41.99
49999;BME280;68071;45.062;7.356;2023-04-01T05:34:42;94216.69;;;9.28;41.97
49999;BME280;68071;45.062;7.356;2023-04-01T05:37:47;94202.25;;;9.41;40.85
49999;BME280;68071;45.062;7.356;2023-04-01T05:40:51;94203.25;;;9.50;41.11
49999;BME280;68071;45.062;7.356;2023-04-01T05:43:55;94213.38;;;9.77;39.21
49999;BME280;68071;45.062;7.356;2023-04-01T05:47:22;94228.19;;;9.83;39.28
49999;BME280;68071;45.062;7.356;2023-04-01T05:50:26;94207.75;;;9.81;39.60
49999;BME280;68071;45.062;7.356;2023-04-01T05:53:30;94201.34;;;9.67;40.60
49999;BME280;68071;45.062;7.356;2023-04-01T05:56:35;94203.66;;;9.69;41.10
49999;BME280;68071;45.062;7.356;2023-04-01T05:59:39;94206.66;;;9.78;40.06
49999;BME280;68071;45.062;7.356;2023-04-01T06:02:43;94204.38;;;9.73;40.75
49999;BME280;68071;45.062;7.356;2023-04-01T06:05:47;94210.16;;;9.79;40.58
49999;BME280;68071;45.062;7.356;2023-04-01T06:08:52;94188.66;;;9.90;39.66
49999;BME280;68071;45.062;7.356;2023-04-01T06:15:44;94188.13;;;10.32;38.49
49999;BME280;68071;45.062;7.356;2023-04-01T06:19:36;94190.03;;;10.35;38.41
49999;BME280;68071;45.062;7.356;2023-04-01T06:30:34;94193.91;;;10.38;40.31
49999;BME280;68071;45.062;7.356;2023-04-01T06:34:01;94210.44;;;10.58;38.49
49999;BME280;68071;45.062;7.356;2023-04-01T06:37:40;94189.63;;;10.86;36.65
49999;BME280;68071;45.062;7.356;2023-04-01T06:44:58;94195.09;;;11.19;37.57
49999;BME280;68071;45.062;7.356;2023-04-01T06:56:14;94175.28;;;11.21;40.74
49999;BME280;68071;45.062;7.356;2023-04-01T06:59:32;94178.28;;;11.27;40.25
49999;BME280;68071;45.062;7.356;2023-04-01T07:05:49;94204.78;;;11.41;37.22
49999;BME280;68071;45.062;7.356;2023-04-01T07:08:57;94183.50;;;11.67;39.58
49999;BME280;68071;45.062;7.356;2023-04-01T07:12:16;94177.22;;;11.67;36.84
49999;BME280;68071;45.062;7.356;2023-04-01T07:15:45;94183.63;;;12.19;35.04
49999;BME280;68071;45.062;7.356;2023-04-01T07:18:53;94157.31;;;11.98;36.22
49999;BME280;68071;45.062;7.356;2023-04-01T07:22:06;94148.38;;;12.32;33.44
49999;BME280;68071;45.062;7.356;2023-04-01T07:25:52;94161.06;;;12.81;33.98
49999;BME280;68071;45.062;7.356;2023-04-01T07:29:05;94175.50;;;12.50;35.57
49999;BME280;68071;45.062;7.356;2023-04-01T07:36:47;94159.41;;;12.71;29.92
49999;BME280;68071;45.062;7.356;2023-04-01T07:39:35;94113.31;;;12.99;31.19
49999;BME280;68071;45.062;7.356;2023-04-01T07:53:20;94152.81;;;13.92;29.89
49999;BME280;68071;45.062;7.356;2023-04-01T07:56:48;94145.91;;;13.97;27.32
49999;BME280;68071;45.062;7.356;2023-04-01T08:06:57;94140.88;;;14.05;26.84
49999;BME280;68071;45.062;7.356;2023-04-01T08:10:27;94152.50;;;14.22;25.94
49999;BME280;68071;45.062;7.356;2023-04-01T08:13:59;94160.75;;;14.35;28.87
49999;BME280;68071;45.062;7.356;2023-04-01T08:20:54;94170.25;;;14.56;25.61
49999;BME280;68071;45.062;7.356;2023-04-01T08:24:47;94153.63;;;14.25;26.58
49999;BME280;68071;45.062;7.356;2023-04-01T08:27:48;94161.25;;;14.11;25.39
49999;BME280;68071;45.062;7.356;2023-04-01T08:31:09;94161.31;;;14.20;26.26
49999;BME280;68071;45.062;7.356;2023-04-01T08:34:23;94157.78;;;14.70;26.00
49999;BME280;68071;45.062;7.356;2023-04-01T08:37:35;94174.84;;;14.50;25.85
49999;BME280;68071;45.062;7.356;2023-04-01T08:40:54;94164.44;;;14.32;23.73
49999;BME280;68071;45.062;7.356;2023-04-01T08:54:41;94169.41;;;14.78;24.88
49999;BME280;68071;45.062;7.356;2023-04-01T09:01:55;94182.16;;;15.25;25.36
49999;BME280;68071;45.062;7.356;2023-04-01T09:09:13;94176.06;;;14.90;26.27
49999;BME280;68071;45.062;7.356;2023-04-01T09:12:42;94181.50;;;14.93;23.89
49999;BME280;68071;45.062;7.356;2023-04-01T09:19:27;94177.19;;;14.92;23.77
49999;BME280;68071;45.062;7.356;2023-04-01T09:36:38;94211.41;;;14.39;26.70
49999;BME280;68071;45.062;7.356;2023-04-01T09:50:14;94211.75;;;14.50;23.58
49999;BME280;68071;45.062;7.356;2023-04-01T10:00:13;94200.19;;;14.93;25.72
49999;BME280;68071;45.062;7.356;2023-04-01T10:07:22;94189.69;;;14.97;23.02
49999;BME280;68071;45.062;7.356;2023-04-01T10:28:01;94191.25;;;15.07;22.08
49999;BME280;68071;45.062;7.356;2023-04-01T10:53:07;94197.63;;;15.26;22.03
49999;BME280;68071;45.062;7.356;2023-04-01T11:18:25;94188.03;;;15.18;22.30
49999;BME280;68071;45.062;7.356;2023-04-01T11:25:46;94166.06;;;15.67;23.41
49999;BME280;68071;45.062;7.356;2023-04-01T11:33:00;94155.88;;;15.45;22.64
49999;BME280;68071;45.062;7.356;2023-04-01T11:46:25;94157.88;;;15.35;23.12
49999;BME280;68071;45.062;7.356;2023-04-01T11:57:17;94138.34;;;15.72;22.76
49999;BME280;68071;45.062;7.356;2023-04-01T12:07:27;94119.28;;;15.90;21.38
49999;BME280;68071;45.062;7.356;2023-04-01T12:14:17;94151.19;;;15.79;21.03
49999;BME280;68071;45.062;7.356;2023-04-01T12:17:36;94120.59;;;16.22;21.69
49999;BME280;68071;45.062;7.356;2023-04-01T12:20:49;94123.25;;;16.50;21.74
49999;BME280;68071;45.062;7.356;2023-04-01T12:25:07;94144.50;;;16.47;22.13
49999;BME280;68071;45.062;7.356;2023-04-01T12:41:26;94137.97;;;16.51;21.99
49999;BME280;68071;45.062;7.356;2023-04-01T12:44:58;94121.28;;;15.98;21.82
49999;BME280;68071;45.062;7.356;2023-04-01T12:48:13;94131.19;;;15.99;23.26
49999;BME280;68071;45.062;7.356;2023-04-01T13:08:21;94134.41;;;16.16;22.57
49999;BME280;68071;45.062;7.356;2023-04-01T13:11:48;94124.22;;;16.38;24.14
49999;BME280;68071;45.062;7.356;2023-04-01T13:18:43;94118.53;;;17.14;25.84
49999;BME280;68071;45.062;7.356;2023-04-01T13:22:15;94106.25;;;16.97;23.49
49999;BME280;68071;45.062;7.356;2023-04-01T13:32:23;94112.63;;;16.39;20.07
49999;BME280;68071;45.062;7.356;2023-04-01T13:35:39;94104.56;;;16.41;19.75
49999;BME280;68071;45.062;7.356;2023-04-01T13:42:28;94089.56;;;16.87;20.08
49999;BME280;68071;45.062;7.356;2023-04-01T13:49:32;94089.31;;;16.52;21.01
49999;BME280;68071;45.062;7.356;2023-04-01T13:59:59;94084.53;;;16.52;20.39
49999;BME280;68071;45.062;7.356;2023-04-01T14:07:29;94088.22;;;16.25;20.14
49999;BME280;68071;45.062;7.356;2023-04-01T14:13:47;94077.81;;;16.83;20.77
49999;BME280;68071;45.062;7.356;2023-04-01T14:17:03;94071.66;;;16.21;20.49
49999;BME280;68071;45.062;7.356;2023-04-01T14:27:01;94060.97;;;16.20;21.42
49999;BME280;68071;45.062;7.356;2023-04-01T14:50:41;94044.03;;;16.32;21.56
49999;BME280;68071;45.062;7.356;2023-04-01T14:54:30;94029.00;;;17.03;21.70
49999;BME280;68071;45.062;7.356;2023-04-01T14:57:34;94032.31;;;16.92;21.20
49999;BME280;68071;45.062;7.356;2023-04-01T15:04:27;94027.31;;;17.35;20.04
49999;BME280;68071;45.062;7.356;2023-04-01T15:08:00;94027.16;;;17.00;21.71
49999;BME280;68071;45.062;7.356;2023-04-01T15:18:44;94031.81;;;16.93;21.30
49999;BME280;68071;45.062;7.356;2023-04-01T15:22:25;94019.59;;;17.60;22.09
49999;BME280;68071;45.062;7.356;2023-04-01T15:25:45;94021.41;;;16.79;20.75
49999;BME280;68071;45.062;7.356;2023-04-01T15:32:29;94032.56;;;16.79;20.06
49999;BME280;68071;45.062;7.356;2023-04-01T15:42:34;94028.16;;;16.87;19.56
49999;BME280;68071;45.062;7.356;2023-04-01T15:56:24;94021.66;;;16.42;21.63
49999;BME280;68071;45.062;7.356;2023-04-01T16:02:48;94038.88;;;16.40;21.75
49999;BME280;68071;45.062;7.356;2023-04-01T16:06:08;94038.66;;;15.86;21.89
49999;BME280;68071;45.062;7.356;2023-04-01T16:13:03;94028.31;;;15.86;21.42
49999;BME280;68071;45.062;7.356;2023-04-01T16:22:34;94023.22;;;16.09;23.38
49999;BME280;68071;45.062;7.356;2023-04-01T16:25:41;94022.47;;;16.09;22.54
49999;BME280;68071;45.062;7.356;2023-04-01T16:28:54;94021.78;;;15.80;22.68
49999;BME280;68071;45.062;7.356;2023-04-01T16:39:26;94034.25;;;15.61;22.47
49999;BME280;68071;45.062;7.356;2023-04-01T16:46:21;94032.19;;;14.81;23.10
49999;BME280;68071;45.062;7.356;2023-04-01T16:53:14;94019.75;;;14.26;23.89
49999;BME280;68071;45.062;7.356;2023-04-01T16:56:23;94016.81;;;14.30;23.82
49999;BME280;68071;45.062;7.356;2023-04-01T16:59:47;94015.88;;;14.24;24.44
49999;BME280;68071;45.062;7.356;2023-04-01T17:03:08;94028.34;;;14.19;23.15
49999;BME280;68071;45.062;7.356;2023-04-01T17:06:33;94023.25;;;14.08;23.76
49999;BME280;68071;45.062;7.356;2023-04-01T17:17:13;94023.44;;;13.73;25.01
49999;BME280;68071;45.062;7.356;2023-04-01T17:23:52;94022.81;;;13.69;24.86
49999;BME280;68071;45.062;7.356;2023-04-01T17:30:21;94031.69;;;13.32;26.39
49999;BME280;68071;45.062;7.356;2023-04-01T17:47:00;94023.03;;;13.52;26.03
49999;BME280;68071;45.062;7.356;2023-04-01T18:00:38;94019.50;;;13.29;26.74
49999;BME280;68071;45.062;7.356;2023-04-01T18:03:54;94023.13;;;13.17;27.05
49999;BME280;68071;45.062;7.356;2023-04-01T18:07:13;94034.50;;;13.10;27.54
49999;BME280;68071;45.062;7.356;2023-04-01T18:13:58;94044.84;;;12.96;28.21
49999;BME280;68071;45.062;7.356;2023-04-01T18:17:12;94050.88;;;12.95;28.68
49999;BME280;68071;45.062;7.356;2023-04-01T18:24:28;94045.03;;;12.80;29.30
49999;BME280;68071;45.062;7.356;2023-04-01T18:27:22;94044.09;;;12.74;29.72
49999;BME280;68071;45.062;7.356;2023-04-01T18:30:32;94042.53;;;12.73;29.54
49999;BME280;68071;45.062;7.356;2023-04-01T18:37:02;94054.84;;;12.71;29.63
49999;BME280;68071;45.062;7.356;2023-04-01T18:40:22;94044.13;;;12.61;30.53
49999;BME280;68071;45.062;7.356;2023-04-01T18:43:39;94052.59;;;12.57;30.64
49999;BME280;68071;45.062;7.356;2023-04-01T18:46:55;94052.59;;;12.57;30.75
49999;BME280;68071;45.062;7.356;2023-04-01T18:56:37;94059.47;;;12.39;31.79
49999;BME280;68071;45.062;7.356;2023-04-01T18:59:46;94057.28;;;12.34;32.09
49999;BME280;68071;45.062;7.356;2023-04-01T19:03:12;94062.03;;;12.34;32.32
49999;BME280;68071;45.062;7.356;2023-04-01T19:06:26;94067.97;;;12.10;33.32
49999;BME280;68071;45.062;7.356;2023-04-01T19:09:53;94077.03;;;12.23;32.47
49999;BME280;68071;45.062;7.356;2023-04-01T19:26:40;94073.75;;;12.51;31.66
49999;BME280;68071;45.062;7.356;2023-04-01T19:33:18;94084.25;;;12.08;33.35
49999;BME280;68071;45.062;7.356;2023-04-01T19:36:44;94087.22;;;11.88;34.85
49999;BME280;68071;45.062;7.356;2023-04-01T19:43:50;94091.75;;;11.69;36.11
49999;BME280;68071;45.062;7.356;2023-04-01T19:47:32;94090.50;;;11.57;37.71
49999;BME280;68071;45.062;7.356;2023-04-01T19:51:00;94085.84;;;11.54;37.13
49999;BME280;68071;45.062;7.356;2023-04-01T19:57:52;94088.41;;;11.61;36.56
49999;BME280;68071;45.062;7.356;2023-04-01T20:01:03;94090.38;;;11.47;37.05
49999;BME280;68071;45.062;7.356;2023-04-01T20:04:13;94109.34;;;11.62;36.31
49999;BME280;68071;45.062;7.356;2023-04-01T20:07:41;94071.13;;;11.44;37.16
49999;BME280;68071;45.062;7.356;2023-04-01T20:17:52;94091.94;;;11.61;36.52
49999;BME280;68071;45.062;7.356;2023-04-01T20:21:22;94096.59;;;11.64;36.33
49999;BME280;68071;45.062;7.356;2023-04-01T20:24:36;94086.84;;;11.73;36.47
49999;BME280;68071;45.062;7.356;2023-04-01T20:27:58;94156.06;;;11.73;36.10
49999;BME280;68071;45.062;7.356;2023-04-01T20:37:35;94102.03;;;11.68;35.77
49999;BME280;68071;45.062;7.356;2023-04-01T20:40:45;94099.72;;;11.79;35.43
49999;BME280;68071;45.062;7.356;2023-04-01T20:44:13;94103.03;;;11.74;35.82
49999;BME280;68071;45.062;7.356;2023-04-01T20:50:56;94102.25;;;11.61;36.04
49999;BME280;68071;45.062;7.356;2023-04-01T21:08:02;94104.88;;;11.52;36.23
49999;BME280;68071;45.062;7.356;2023-04-01T21:18:34;94123.03;;;11.53;35.86
49999;BME280;68071;45.062;7.356;2023-04-01T21:28:35;94110.16;;;12.27;32.27
49999;BME280;68071;45.062;7.356;2023-04-01T21:35:14;94133.03;;;11.63;35.00
49999;BME280;68071;45.062;7.356;2023-04-01T21:45:11;94106.72;;;11.29;37.34
49999;BME280;68071;45.062;7.356;2023-04-01T22:09:09;94106.97;;;11.47;34.29
49999;BME280;68071;45.062;7.356;2023-04-01T22:12:23;94102.66;;;11.46;34.24
49999;BME280;68071;45.062;7.356;2023-04-01T22:15:52;94101.09;;;11.45;34.26
49999;BME280;68071;45.062;7.356;2023-04-01T22:22:18;94107.44;;;11.46;34.16
49999;BME280;68071;45.062;7.356;2023-04-01T22:25:47;94106.00;;;11.12;34.43
49999;BME280;68071;45.062;7.356;2023-04-01T22:32:44;94097.50;;;11.19;35.51
49999;BME280;68071;45.062;7.356;2023-04-01T22:42:47;94094.91;;;11.54;33.62
49999;BME280;68071;45.062;7.356;2023-04-01T22:49:32;94123.34;;;11.42;34.00
49999;BME280;68071;45.062;7.356;2023-04-01T22:52:43;94103.88;;;11.45;33.97
49999;BME280;68071;45.062;7.356;2023-04-01T22:55:50;94097.66;;;11.28;34.35
49999;BME280;68071;45.062;7.356;2023-04-01T22:59:02;94117.25;;;11.34;34.18
49999;BME280;68071;45.062;7.356;2023-04-01T23:02:25;94107.81;;;11.18;34.93
49999;BME280;68071;45.062;7.356;2023-04-01T23:05:34;94101.97;;;11.29;34.68
49999;BME280;68071;45.062;7.356;2023-04-01T23:12:33;94098.97;;;11.24;34.05
49999;BME280;68071;45.062;7.356;2023-04-01T23:15:38;94110.81;;;11.24;34.04
49999;BME280;68071;45.062;7.356;2023-04-01T23:25:21;94111.94;;;11.40;33.33
49999;BME280;68071;45.062;7.356;2023-04-01T23:28:44;94108.31;;;11.43;33.81
49999;BME280;68071;45.062;7.356;2023-04-01T23:31:59;94111.53;;;11.41;33.20
49999;BME280;68071;45.062;7.356;2023-04-01T23:35:15;94118.34;;;11.37;33.68
49999;BME280;68071;45.062;7.356;2023-04-01T23:38:23;94127.66;;;11.43;33.11
49999;BME280;68071;45.062;7.356;2023-04-01T23:41:30;94119.78;;;11.28;33.65
49999;BME280;68071;45.062;7.356;2023-04-01T23:44:42;94123.22;;;11.32;32.85
49999;BME280;68071;45.062;7.356;2023-04-01T23:47:48;94115.28;;;11.34;33.09
49999;BME280;68071;45.062;7.356;2023-04-01T23:50:56;94120.06;;;11.17;33.28
49999;BME280;68071;45.062;7.356;2023-04-01T23:54:03;94125.88;;;11.36;32.47
49999;BME280;68071;45.062;7.356;2023-04-01T23:57:17;94138.22;;;11.18;33.76
